createdAt,value
2022-12-24T03:09:02.927Z,1.40
2022-12-24T03:12:10.557Z,1.30
2022-12-24T03:15:15.821Z,1.15
2022-12-24T03:18:21.226Z,1.33
2022-12-24T03:21:26.187Z,1.40
2022-12-24T03:24:27.949Z,1.23
2022-12-24T03:27:31.022Z,1.20
2022-12-24T03:30:32.989Z,1.33
2022-12-24T03:33:34.694Z,1.27
2022-12-24T03:36:36.261Z,1.27
2022-12-24T03:39:37.800Z,1.25
2022-12-24T03:42:39.621Z,0.88
2022-12-24T03:45:41.201Z,1.15
2022-12-24T03:48:42.756Z,1.10
2022-12-24T03:51:44.257Z,1.15
2022-12-24T03:54:45.755Z,1.10
2022-12-24T03:57:47.258Z,1.25
2022-12-24T04:00:48.779Z,1.23
2022-12-24T04:03:50.457Z,0.98
2022-12-24T04:06:51.979Z,1.27
2022-12-24T04:09:53.489Z,1.00
2022-12-24T04:12:55.051Z,1.23
2022-12-24T04:16:01.946Z,1.00
2022-12-24T04:19:03.615Z,1.20
2022-12-24T04:22:05.149Z,1.05
2022-12-24T04:25:09.100Z,1.20
2022-12-24T04:28:13.990Z,1.00
2022-12-24T11:29:14.591Z,3.13
2022-12-24T11:32:19.465Z,3.53
2022-12-24T11:35:23.479Z,4.22
2022-12-24T11:38:27.193Z,4.00
2022-12-24T11:41:37.214Z,3.22
2022-12-24T11:44:48.508Z,2.70
2022-12-24T11:47:50.904Z,2.95
2022-12-24T11:50:59.594Z,2.75
2022-12-24T11:54:27.767Z,2.28
2022-12-24T11:57:41.559Z,2.22
2022-12-24T12:00:45.249Z,2.10
2022-12-24T12:03:53.229Z,1.95
2022-12-24T12:07:00.671Z,1.80
2022-12-24T12:10:19.917Z,1.95
2022-12-24T12:13:33.229Z,1.92
2022-12-24T12:17:06.636Z,1.70
2022-12-24T12:20:18.656Z,1.70
2022-12-24T12:23:29.956Z,1.35
2022-12-24T12:26:33.217Z,1.80
2022-12-24T12:29:45.822Z,1.42
2022-12-24T12:33:12.168Z,1.85
2022-12-24T14:49:53.959Z,23.80
2022-12-24T14:53:34.186Z,22.40
2022-12-24T14:56:35.683Z,20.13
2022-12-24T14:59:49.044Z,20.63
2022-12-24T15:02:52.009Z,20.08
2022-12-24T15:05:57.723Z,20.55
2022-12-24T15:08:59.459Z,20.65
2022-12-24T15:12:04.382Z,21.27
2022-12-24T15:15:07.236Z,21.25
2022-12-24T15:18:15.583Z,21.85
2022-12-24T15:21:28.143Z,22.60
2022-12-24T15:24:35.576Z,21.40
2022-12-24T15:27:39.548Z,22.25
2022-12-24T15:30:41.164Z,21.15
2022-12-24T15:33:47.229Z,22.33
2022-12-24T15:36:48.740Z,22.83
2022-12-24T15:40:07.820Z,23.13
2022-12-24T15:43:09.384Z,23.38
2022-12-24T15:46:27.607Z,21.80
2022-12-24T15:49:31.243Z,23.00
2022-12-24T15:52:40.242Z,22.92
2022-12-24T15:55:45.422Z,21.55
2022-12-24T15:58:46.905Z,21.52
2022-12-24T16:01:48.948Z,22.15
2022-12-24T16:04:50.877Z,21.40
2022-12-24T16:08:14.357Z,20.35
2022-12-24T16:11:28.333Z,20.58
2022-12-24T16:14:32.521Z,19.40
2022-12-24T16:17:35.869Z,18.98
2022-12-24T16:20:37.377Z,17.92
2022-12-24T16:23:52.255Z,18.02
2022-12-24T16:26:54.053Z,16.85
2022-12-24T16:29:55.587Z,17.33
2022-12-24T16:32:57.071Z,17.10
2022-12-24T16:35:58.615Z,17.00
2022-12-24T16:39:18.508Z,15.95
2022-12-24T16:42:38.913Z,14.63
2022-12-24T16:45:40.445Z,15.32
2022-12-24T16:48:45.673Z,15.50
2022-12-24T16:51:47.323Z,14.55
2022-12-24T16:54:49.835Z,13.85
2022-12-24T16:57:51.523Z,14.65
2022-12-24T17:00:53.477Z,14.05
2022-12-24T17:03:54.989Z,12.70
2022-12-24T17:06:56.492Z,13.32
2022-12-24T17:09:57.991Z,12.30
2022-12-24T17:12:59.527Z,12.75
2022-12-24T17:16:03.015Z,12.65
2022-12-24T17:19:05.186Z,12.02
2022-12-24T17:22:06.654Z,11.57
2022-12-24T17:25:11.783Z,13.15
2022-12-24T17:28:13.273Z,11.50
2022-12-24T17:31:16.332Z,11.38
2022-12-24T17:34:17.894Z,10.93
2022-12-24T17:37:19.649Z,10.85
2022-12-24T17:40:21.201Z,9.85
2022-12-24T17:43:22.712Z,12.07
2022-12-24T17:46:24.339Z,10.40
2022-12-24T17:49:25.935Z,10.05
2022-12-24T17:52:27.454Z,10.30
2022-12-24T17:55:28.967Z,10.43
2022-12-24T17:58:31.241Z,10.57
2022-12-24T18:01:33.239Z,11.52
